createdAt,value
2023-01-26T00:03:28.132Z,3.23
2023-01-26T00:07:09.767Z,5.56
2023-01-26T00:10:51.446Z,3.54
2023-01-26T00:14:33.103Z,2.83
2023-01-26T00:18:14.766Z,3.21
2023-01-26T00:21:56.427Z,3.06
2023-01-26T00:25:38.221Z,3.14
2023-01-26T00:29:19.910Z,2.94
2023-01-26T00:33:01.636Z,4.24
2023-01-26T00:36:43.491Z,3.70
2023-01-26T00:40:25.245Z,4.05
2023-01-26T00:44:06.864Z,2.66
2023-01-26T00:47:48.574Z,3.66
2023-01-26T00:51:30.259Z,3.74
2023-01-26T00:55:12.037Z,4.03
2023-01-26T00:58:53.743Z,3.64
2023-01-26T01:02:35.399Z,2.60
2023-01-26T01:06:17.147Z,3.17
2023-01-26T01:09:58.794Z,3.10
2023-01-26T01:13:40.522Z,3.20
2023-01-26T01:17:22.063Z,2.09
2023-01-26T01:21:03.683Z,3.25
2023-01-26T01:24:45.386Z,3.37
2023-01-26T01:28:26.999Z,2.09
2023-01-26T01:32:08.638Z,2.37
2023-01-26T01:35:50.200Z,2.67
2023-01-26T01:43:11.916Z,2.35
2023-01-26T01:46:53.602Z,2.09
2023-01-26T01:50:35.134Z,2.79
2023-01-26T01:54:16.753Z,2.87
2023-01-26T01:57:58.397Z,3.49
2023-01-26T02:01:40.071Z,2.54
2023-01-26T02:05:21.602Z,2.48
2023-01-26T02:12:43.305Z,2.09
2023-01-26T02:20:04.970Z,2.19
2023-01-26T02:23:46.688Z,2.48
2023-01-26T02:34:48.443Z,0.00
2023-01-26T02:45:50.088Z,0.00
2023-01-26T02:56:51.839Z,0.00
2023-01-26T03:07:53.552Z,0.00
2023-01-26T03:18:55.324Z,0.00
2023-01-26T03:29:57.033Z,0.00
2023-01-26T03:40:58.791Z,0.00
2023-01-26T03:48:20.412Z,2.09
2023-01-26T03:59:22.171Z,0.00
2023-01-26T04:10:23.889Z,0.00
2023-01-26T04:21:25.693Z,0.00
2023-01-26T04:32:27.425Z,2.48
2023-01-26T04:36:09.009Z,2.87
2023-01-26T04:39:50.696Z,4.02
2023-01-26T04:43:32.292Z,2.21
2023-01-26T04:47:13.894Z,2.09
2023-01-26T04:54:35.580Z,2.48
2023-01-26T05:05:37.380Z,0.00
2023-01-26T05:16:39.132Z,0.00
2023-01-26T05:27:40.878Z,0.00
2023-01-26T05:38:42.580Z,0.00
2023-01-26T05:49:44.324Z,0.00
2023-01-26T06:00:46.047Z,0.00
2023-01-26T06:11:47.806Z,0.00
2023-01-26T06:22:49.528Z,0.00
2023-01-26T06:33:51.303Z,0.00
2023-01-26T06:44:53.007Z,0.00
2023-01-26T06:55:54.757Z,0.00
2023-01-26T07:06:56.480Z,0.00
2023-01-26T07:17:58.242Z,0.00
2023-01-26T07:28:59.965Z,0.00
2023-01-26T07:40:01.709Z,0.00
2023-01-26T07:51:03.456Z,0.00
2023-01-26T08:02:05.229Z,0.00
2023-01-26T08:13:06.939Z,0.00
2023-01-26T08:24:08.781Z,0.00
2023-01-26T08:35:10.446Z,0.00
2023-01-26T08:38:52.016Z,2.48
2023-01-26T08:49:53.761Z,0.00
2023-01-26T09:00:55.477Z,0.00
2023-01-26T09:11:57.266Z,0.00
2023-01-26T09:22:58.999Z,0.00
2023-01-26T09:34:00.769Z,1.70
2023-01-26T09:45:02.752Z,0.00
2023-01-26T09:56:04.524Z,0.00
2023-01-26T10:07:06.240Z,0.00
2023-01-26T10:18:07.998Z,0.00
2023-01-26T10:29:09.717Z,0.00
2023-01-26T10:40:11.521Z,0.00
2023-01-26T10:51:13.277Z,0.00
2023-01-26T11:02:15.064Z,0.00
2023-01-26T11:13:16.767Z,0.00
2023-01-26T11:24:18.567Z,0.00
2023-01-26T11:35:20.258Z,0.00
2023-01-26T11:46:22.023Z,0.00
2023-01-26T11:57:23.752Z,0.00
2023-01-26T12:08:25.500Z,0.00
2023-01-26T12:19:27.267Z,0.00
2023-01-26T12:23:08.901Z,2.29
2023-01-26T12:30:30.721Z,2.68
2023-01-26T12:34:12.215Z,2.93
2023-01-26T12:41:33.922Z,2.63
2023-01-26T12:48:55.620Z,1.96
2023-01-26T12:59:57.476Z,0.00
2023-01-26T13:10:59.311Z,2.81
2023-01-26T13:18:20.995Z,2.67
2023-01-26T13:22:02.606Z,2.77
2023-01-26T13:33:04.389Z,0.00
2023-01-26T13:36:45.967Z,4.64
2023-01-26T13:40:28.981Z,2.75
2023-01-26T13:44:09.192Z,2.48
2023-01-26T13:55:10.943Z,0.00
2023-01-26T14:06:12.644Z,0.00
2023-01-26T14:17:14.402Z,0.00
2023-01-26T14:28:16.145Z,0.00
2023-01-26T14:39:17.907Z,0.00
2023-01-26T14:50:19.622Z,0.00
2023-01-26T15:01:21.387Z,0.00
2023-01-26T15:12:23.104Z,0.00
2023-01-26T15:23:24.871Z,0.00
2023-01-26T15:34:26.595Z,0.00
2023-01-26T15:45:28.362Z,0.00
2023-01-26T15:56:30.099Z,0.00
2023-01-26T16:07:31.920Z,0.00
2023-01-26T16:18:33.657Z,0.00
2023-01-26T16:29:35.513Z,0.00
2023-01-26T16:40:37.163Z,0.00
2023-01-26T16:51:38.916Z,0.00
2023-01-26T17:02:40.650Z,0.00
2023-01-26T17:13:42.528Z,0.00
2023-01-26T17:24:44.269Z,0.00
2023-01-26T17:35:46.069Z,0.00
2023-01-26T17:46:47.787Z,0.00
2023-01-26T17:57:49.557Z,0.00
2023-01-26T18:08:51.545Z,0.00
2023-01-26T18:19:53.583Z,0.00
2023-01-26T18:30:55.478Z,0.00
2023-01-26T18:41:58.389Z,0.00
2023-01-26T18:53:00.292Z,0.00
2023-01-26T19:04:02.252Z,0.00
2023-01-26T19:15:04.166Z,0.00
2023-01-26T19:26:06.197Z,0.00
2023-01-26T19:37:08.207Z,0.00
2023-01-26T19:48:10.244Z,0.00
2023-01-26T19:59:12.206Z,0.00
2023-01-26T20:10:15.482Z,0.00
2023-01-26T20:21:17.416Z,0.00
2023-01-26T20:32:19.383Z,0.00
2023-01-26T20:43:21.205Z,0.00
2023-01-26T20:54:23.021Z,0.00
2023-01-26T21:05:24.891Z,0.00
2023-01-26T21:16:26.994Z,0.00
2023-01-26T21:27:28.710Z,0.00
2023-01-26T21:38:30.474Z,0.00
2023-01-26T21:49:32.367Z,0.00
2023-01-26T22:00:34.226Z,0.00
2023-01-26T22:11:35.959Z,0.00
2023-01-26T22:22:37.725Z,0.00
2023-01-26T22:33:39.443Z,0.00
2023-01-26T22:44:41.241Z,0.00
2023-01-26T22:55:43.005Z,0.00
2023-01-26T23:06:44.743Z,0.00
2023-01-26T23:17:46.478Z,0.00
2023-01-26T23:28:48.248Z,0.00
2023-01-26T23:39:49.973Z,0.00
2023-01-26T23:50:51.760Z,0.00
